sensor_id;sensor_type;location;lat;lon;timestamp;temperature;humidity
44695;DHT22;32845;59.422;17.930;2023-02-15T00:01:27;3.30;99.90
44695;DHT22;32845;59.422;17.930;2023-02-15T00:05:58;3.40;99.90
44695;DHT22;32845;59.422;17.930;2023-02-15T00:10:29;3.40;99.90
44695;DHT22;32845;59.422;17.930;2023-02-15T00:14:59;3.40;99.90
44695;DHT22;32845;59.422;17.930;2023-02-15T00:19:30;3.40;99.90
44695;DHT22;32845;59.422;17.930;2023-02-15T00:24:03;3.40;99.90
44695;DHT22;32845;59.422;17.930;2023-02-15T00:28:34;3.40;99.90
44695;DHT22;32845;59.422;17.930;2023-02-15T00:33:05;3.40;99.90
44695;DHT22;32845;59.422;17.930;2023-02-15T00:37:36;3.40;99.90
44695;DHT22;32845;59.422;17.930;2023-02-15T00:42:06;3.40;99.90
44695;DHT22;32845;59.422;17.930;2023-02-15T00:46:37;3.40;99.90
44695;DHT22;32845;59.422;17.930;2023-02-15T00:51:08;3.40;99.90
44695;DHT22;32845;59.422;17.930;2023-02-15T00:55:38;3.40;99.90
44695;DHT22;32845;59.422;17.930;2023-02-15T01:00:11;3.40;99.90
44695;DHT22;32845;59.422;17.930;2023-02-15T01:04:42;3.40;99.90
44695;DHT22;32845;59.422;17.930;2023-02-15T01:09:12;3.40;99.90
44695;DHT22;32845;59.422;17.930;2023-02-15T01:13:44;3.40;99.90
44695;DHT22;32845;59.422;17.930;2023-02-15T01:18:14;3.40;99.90
44695;DHT22;32845;59.422;17.930;2023-02-15T01:22:45;3.40;99.90
44695;DHT22;32845;59.422;17.930;2023-02-15T01:27:16;3.40;99.90
44695;DHT22;32845;59.422;17.930;2023-02-15T01:31:46;3.40;99.90
44695;DHT22;32845;59.422;17.930;2023-02-15T01:36:17;3.30;99.90
44695;DHT22;32845;59.422;17.930;2023-02-15T01:40:51;3.30;99.90
44695;DHT22;32845;59.422;17.930;2023-02-15T01:45:30;3.40;99.90
44695;DHT22;32845;59.422;17.930;2023-02-15T01:54:45;3.40;99.90
44695;DHT22;32845;59.422;17.930;2023-02-15T01:59:20;3.30;99.90
44695;DHT22;32845;59.422;17.930;2023-02-15T02:08:48;3.40;99.90
44695;DHT22;32845;59.422;17.930;2023-02-15T02:13:19;3.40;99.90
44695;DHT22;32845;59.422;17.930;2023-02-15T02:18:19;3.40;99.90
44695;DHT22;32845;59.422;17.930;2023-02-15T02:23:23;3.40;99.90
44695;DHT22;32845;59.422;17.930;2023-02-15T02:28:41;3.40;99.90
44695;DHT22;32845;59.422;17.930;2023-02-15T02:42:49;3.40;99.90
44695;DHT22;32845;59.422;17.930;2023-02-15T02:47:25;3.40;99.90
44695;DHT22;32845;59.422;17.930;2023-02-15T02:52:51;3.40;99.90
44695;DHT22;32845;59.422;17.930;2023-02-15T02:56:58;3.40;99.90
44695;DHT22;32845;59.422;17.930;2023-02-15T03:06:21;3.40;99.90
44695;DHT22;32845;59.422;17.930;2023-02-15T03:10:54;3.40;99.90
44695;DHT22;32845;59.422;17.930;2023-02-15T03:15:30;3.40;99.90
44695;DHT22;32845;59.422;17.930;2023-02-15T03:20:26;3.40;99.90
44695;DHT22;32845;59.422;17.930;2023-02-15T03:25:19;3.40;99.90
44695;DHT22;32845;59.422;17.930;2023-02-15T03:29:53;3.40;99.90
44695;DHT22;32845;59.422;17.930;2023-02-15T03:34:25;3.40;99.90
44695;DHT22;32845;59.422;17.930;2023-02-15T03:43:59;3.40;99.90
44695;DHT22;32845;59.422;17.930;2023-02-15T03:48:38;3.40;99.90
44695;DHT22;32845;59.422;17.930;2023-02-15T03:53:13;3.40;99.90
44695;DHT22;32845;59.422;17.930;2023-02-15T03:57:44;3.40;99.90
44695;DHT22;32845;59.422;17.930;2023-02-15T04:02:40;3.40;99.90
44695;DHT22;32845;59.422;17.930;2023-02-15T04:07:15;3.40;99.90
44695;DHT22;32845;59.422;17.930;2023-02-15T04:11:45;3.40;99.90
44695;DHT22;32845;59.422;17.930;2023-02-15T04:16:16;3.40;99.90
44695;DHT22;32845;59.422;17.930;2023-02-15T04:20:47;3.50;99.90
44695;DHT22;32845;59.422;17.930;2023-02-15T04:25:36;3.40;99.90
44695;DHT22;32845;59.422;17.930;2023-02-15T04:30:08;3.40;99.90
44695;DHT22;32845;59.422;17.930;2023-02-15T04:34:39;3.50;99.90
44695;DHT22;32845;59.422;17.930;2023-02-15T04:39:13;3.50;99.90
44695;DHT22;32845;59.422;17.930;2023-02-15T04:43:44;3.40;99.90
44695;DHT22;32845;59.422;17.930;2023-02-15T04:48:16;3.40;99.90
44695;DHT22;32845;59.422;17.930;2023-02-15T04:52:46;3.40;99.90
44695;DHT22;32845;59.422;17.930;2023-02-15T04:57:17;3.40;99.90
44695;DHT22;32845;59.422;17.930;2023-02-15T05:01:48;3.40;99.90
44695;DHT22;32845;59.422;17.930;2023-02-15T05:06:19;3.40;99.90
44695;DHT22;32845;59.422;17.930;2023-02-15T05:10:49;3.40;99.90
44695;DHT22;32845;59.422;17.930;2023-02-15T05:15:20;3.40;99.90
44695;DHT22;32845;59.422;17.930;2023-02-15T05:19:51;3.40;99.90
44695;DHT22;32845;59.422;17.930;2023-02-15T05:24:21;3.40;99.90
44695;DHT22;32845;59.422;17.930;2023-02-15T05:29:11;3.40;99.90
44695;DHT22;32845;59.422;17.930;2023-02-15T05:33:42;3.40;99.90
44695;DHT22;32845;59.422;17.930;2023-02-15T05:38:13;3.40;99.90
44695;DHT22;32845;59.422;17.930;2023-02-15T05:42:43;3.40;99.90
44695;DHT22;32845;59.422;17.930;2023-02-15T05:47:14;3.40;99.90
44695;DHT22;32845;59.422;17.930;2023-02-15T05:51:45;3.40;99.90
44695;DHT22;32845;59.422;17.930;2023-02-15T05:56:15;3.40;99.90
44695;DHT22;32845;59.422;17.930;2023-02-15T06:00:46;3.40;99.90
44695;DHT22;32845;59.422;17.930;2023-02-15T06:05:17;3.40;99.90
44695;DHT22;32845;59.422;17.930;2023-02-15T06:09:48;3.40;99.90
44695;DHT22;32845;59.422;17.930;2023-02-15T06:14:18;3.40;99.90
44695;DHT22;32845;59.422;17.930;2023-02-15T06:18:54;3.40;99.90
44695;DHT22;32845;59.422;17.930;2023-02-15T06:23:25;3.40;99.90
44695;DHT22;32845;59.422;17.930;2023-02-15T06:27:55;3.40;99.90
44695;DHT22;32845;59.422;17.930;2023-02-15T06:32:26;3.40;99.90
44695;DHT22;32845;59.422;17.930;2023-02-15T06:36:57;3.50;99.90
44695;DHT22;32845;59.422;17.930;2023-02-15T06:41:28;3.50;99.90
44695;DHT22;32845;59.422;17.930;2023-02-15T06:45:58;3.50;99.90
44695;DHT22;32845;59.422;17.930;2023-02-15T06:50:29;3.50;99.90
44695;DHT22;32845;59.422;17.930;2023-02-15T06:55:00;3.50;99.90
44695;DHT22;32845;59.422;17.930;2023-02-15T06:59:30;3.50;99.90
44695;DHT22;32845;59.422;17.930;2023-02-15T07:04:01;3.50;99.90
44695;DHT22;32845;59.422;17.930;2023-02-15T07:08:32;3.50;99.90
44695;DHT22;32845;59.422;17.930;2023-02-15T07:13:02;3.50;99.90
44695;DHT22;32845;59.422;17.930;2023-02-15T07:17:34;3.50;99.90
44695;DHT22;32845;59.422;17.930;2023-02-15T07:22:04;3.50;99.90
44695;DHT22;32845;59.422;17.930;2023-02-15T07:26:35;3.50;99.90
44695;DHT22;32845;59.422;17.930;2023-02-15T07:31:06;3.50;99.90
44695;DHT22;32845;59.422;17.930;2023-02-15T07:35:36;3.60;99.90
44695;DHT22;32845;59.422;17.930;2023-02-15T07:40:07;3.60;99.90
44695;DHT22;32845;59.422;17.930;2023-02-15T07:44:38;3.50;99.90
44695;DHT22;32845;59.422;17.930;2023-02-15T07:49:09;3.60;99.90
44695;DHT22;32845;59.422;17.930;2023-02-15T07:53:40;3.60;99.90
44695;DHT22;32845;59.422;17.930;2023-02-15T07:58:11;3.60;99.90
44695;DHT22;32845;59.422;17.930;2023-02-15T08:02:42;3.60;99.90
44695;DHT22;32845;59.422;17.930;2023-02-15T08:07:13;3.60;99.90
44695;DHT22;32845;59.422;17.930;2023-02-15T08:11:43;3.60;99.90
44695;DHT22;32845;59.422;17.930;2023-02-15T08:16:14;3.60;99.90
44695;DHT22;32845;59.422;17.930;2023-02-15T08:20:51;3.60;99.90
44695;DHT22;32845;59.422;17.930;2023-02-15T08:25:22;3.60;99.90
44695;DHT22;32845;59.422;17.930;2023-02-15T08:29:57;3.60;99.90
44695;DHT22;32845;59.422;17.930;2023-02-15T08:34:30;3.60;99.90
44695;DHT22;32845;59.422;17.930;2023-02-15T08:39:04;3.60;99.90
44695;DHT22;32845;59.422;17.930;2023-02-15T08:43:35;3.70;99.90
44695;DHT22;32845;59.422;17.930;2023-02-15T08:48:05;3.60;99.90
44695;DHT22;32845;59.422;17.930;2023-02-15T08:52:36;3.70;99.90
44695;DHT22;32845;59.422;17.930;2023-02-15T08:57:07;3.70;99.90
44695;DHT22;32845;59.422;17.930;2023-02-15T09:01:37;3.70;99.90
44695;DHT22;32845;59.422;17.930;2023-02-15T09:06:08;3.70;99.90
44695;DHT22;32845;59.422;17.930;2023-02-15T09:10:39;3.70;99.90
44695;DHT22;32845;59.422;17.930;2023-02-15T09:15:10;3.70;99.90
44695;DHT22;32845;59.422;17.930;2023-02-15T09:19:41;3.70;99.90
44695;DHT22;32845;59.422;17.930;2023-02-15T09:24:15;3.70;99.90
44695;DHT22;32845;59.422;17.930;2023-02-15T09:28:47;3.70;99.90
44695;DHT22;32845;59.422;17.930;2023-02-15T09:33:19;3.80;99.90
44695;DHT22;32845;59.422;17.930;2023-02-15T09:37:50;3.80;99.90
44695;DHT22;32845;59.422;17.930;2023-02-15T09:42:34;3.80;99.90
44695;DHT22;32845;59.422;17.930;2023-02-15T09:56:59;3.80;99.90
44695;DHT22;32845;59.422;17.930;2023-02-15T10:21:11;3.80;99.90
44695;DHT22;32845;59.422;17.930;2023-02-15T10:30:47;3.80;99.90
44695;DHT22;32845;59.422;17.930;2023-02-15T10:35:25;3.80;99.90
44695;DHT22;32845;59.422;17.930;2023-02-15T10:40:25;3.70;99.90
44695;DHT22;32845;59.422;17.930;2023-02-15T10:45:23;3.80;99.90
44695;DHT22;32845;59.422;17.930;2023-02-15T10:55:06;3.80;99.90
44695;DHT22;32845;59.422;17.930;2023-02-15T11:09:25;3.80;99.90
44695;DHT22;32845;59.422;17.930;2023-02-15T11:14:02;3.90;99.90
44695;DHT22;32845;59.422;17.930;2023-02-15T11:19:08;3.90;99.90
44695;DHT22;32845;59.422;17.930;2023-02-15T11:23:44;3.90;99.90
44695;DHT22;32845;59.422;17.930;2023-02-15T11:28:38;3.90;99.90
44695;DHT22;32845;59.422;17.930;2023-02-15T11:42:36;4.00;99.90
44695;DHT22;32845;59.422;17.930;2023-02-15T11:47:12;4.00;99.90
44695;DHT22;32845;59.422;17.930;2023-02-15T11:51:44;4.00;99.90
44695;DHT22;32845;59.422;17.930;2023-02-15T11:56:16;4.00;99.90
44695;DHT22;32845;59.422;17.930;2023-02-15T12:00:50;4.00;99.90
44695;DHT22;32845;59.422;17.930;2023-02-15T12:05:24;4.00;99.90
44695;DHT22;32845;59.422;17.930;2023-02-15T12:14:56;4.00;99.90
44695;DHT22;32845;59.422;17.930;2023-02-15T12:19:38;3.90;99.90
44695;DHT22;32845;59.422;17.930;2023-02-15T12:24:29;3.90;99.90
44695;DHT22;32845;59.422;17.930;2023-02-15T12:29:27;3.90;99.90
44695;DHT22;32845;59.422;17.930;2023-02-15T12:34:01;3.90;99.90
44695;DHT22;32845;59.422;17.930;2023-02-15T12:38:33;3.90;99.90
44695;DHT22;32845;59.422;17.930;2023-02-15T12:43:04;3.80;99.90
44695;DHT22;32845;59.422;17.930;2023-02-15T12:47:39;3.80;99.90
44695;DHT22;32845;59.422;17.930;2023-02-15T12:56:52;3.80;99.90
44695;DHT22;32845;59.422;17.930;2023-02-15T13:01:25;3.80;99.90
44695;DHT22;32845;59.422;17.930;2023-02-15T13:05:56;3.70;99.90
44695;DHT22;32845;59.422;17.930;2023-02-15T13:10:33;3.60;99.90
44695;DHT22;32845;59.422;17.930;2023-02-15T13:15:46;3.60;99.90
44695;DHT22;32845;59.422;17.930;2023-02-15T13:20:20;3.50;99.90
44695;DHT22;32845;59.422;17.930;2023-02-15T13:24:59;3.50;99.90
44695;DHT22;32845;59.422;17.930;2023-02-15T13:29:35;3.50;99.90
44695;DHT22;32845;59.422;17.930;2023-02-15T13:39:24;3.50;99.90
44695;DHT22;32845;59.422;17.930;2023-02-15T13:49:28;3.50;99.90
44695;DHT22;32845;59.422;17.930;2023-02-15T14:14:00;3.50;99.90
44695;DHT22;32845;59.422;17.930;2023-02-15T14:18:44;3.40;99.90
44695;DHT22;32845;59.422;17.930;2023-02-15T14:23:43;3.40;99.90
44695;DHT22;32845;59.422;17.930;2023-02-15T14:28:27;3.40;99.90
44695;DHT22;32845;59.422;17.930;2023-02-15T14:33:38;3.40;99.90
44695;DHT22;32845;59.422;17.930;2023-02-15T14:38:35;3.40;99.90
44695;DHT22;32845;59.422;17.930;2023-02-15T14:48:15;3.40;99.90
44695;DHT22;32845;59.422;17.930;2023-02-15T14:57:58;3.30;99.90
44695;DHT22;32845;59.422;17.930;2023-02-15T15:07:26;3.20;99.90
44695;DHT22;32845;59.422;17.930;2023-02-15T15:16:54;3.20;99.90
44695;DHT22;32845;59.422;17.930;2023-02-15T15:26:29;3.10;99.90
44695;DHT22;32845;59.422;17.930;2023-02-15T15:50:32;3.00;99.90
44695;DHT22;32845;59.422;17.930;2023-02-15T15:55:20;2.90;99.90
44695;DHT22;32845;59.422;17.930;2023-02-15T15:59:53;2.90;99.90
44695;DHT22;32845;59.422;17.930;2023-02-15T16:04:28;2.90;99.90
44695;DHT22;32845;59.422;17.930;2023-02-15T16:09:17;2.90;99.90
44695;DHT22;32845;59.422;17.930;2023-02-15T16:13:49;2.80;99.90
44695;DHT22;32845;59.422;17.930;2023-02-15T16:18:24;2.80;99.90
44695;DHT22;32845;59.422;17.930;2023-02-15T16:36:49;2.70;99.90
44695;DHT22;32845;59.422;17.930;2023-02-15T16:41:23;2.70;99.90
44695;DHT22;32845;59.422;17.930;2023-02-15T16:46:03;2.70;99.90
44695;DHT22;32845;59.422;17.930;2023-02-15T16:50:37;2.70;99.90
44695;DHT22;32845;59.422;17.930;2023-02-15T16:55:23;2.60;99.90
44695;DHT22;32845;59.422;17.930;2023-02-15T16:59:59;2.60;99.90
44695;DHT22;32845;59.422;17.930;2023-02-15T17:04:31;2.60;99.90
44695;DHT22;32845;59.422;17.930;2023-02-15T17:09:05;2.60;99.90
44695;DHT22;32845;59.422;17.930;2023-02-15T17:13:36;2.60;99.90
44695;DHT22;32845;59.422;17.930;2023-02-15T17:22:41;2.50;99.90
44695;DHT22;32845;59.422;17.930;2023-02-15T17:27:24;2.50;99.90
44695;DHT22;32845;59.422;17.930;2023-02-15T17:31:56;2.50;99.90
44695;DHT22;32845;59.422;17.930;2023-02-15T17:36:31;2.40;99.90
44695;DHT22;32845;59.422;17.930;2023-02-15T17:41:02;2.40;99.90
44695;DHT22;32845;59.422;17.930;2023-02-15T17:45:40;2.40;99.90
44695;DHT22;32845;59.422;17.930;2023-02-15T17:50:25;2.40;99.90
44695;DHT22;32845;59.422;17.930;2023-02-15T17:54:56;2.30;99.90
44695;DHT22;32845;59.422;17.930;2023-02-15T17:59:45;2.30;99.90
44695;DHT22;32845;59.422;17.930;2023-02-15T18:04:35;2.30;99.90
44695;DHT22;32845;59.422;17.930;2023-02-15T18:09:25;2.20;99.90
44695;DHT22;32845;59.422;17.930;2023-02-15T18:14:14;2.20;99.90
44695;DHT22;32845;59.422;17.930;2023-02-15T18:18:45;2.20;99.90
44695;DHT22;32845;59.422;17.930;2023-02-15T18:23:16;2.20;99.90
44695;DHT22;32845;59.422;17.930;2023-02-15T18:27:47;2.20;99.90
44695;DHT22;32845;59.422;17.930;2023-02-15T18:32:31;2.10;99.90
44695;DHT22;32845;59.422;17.930;2023-02-15T18:37:09;2.10;99.90
44695;DHT22;32845;59.422;17.930;2023-02-15T18:41:42;2.10;99.90
44695;DHT22;32845;59.422;17.930;2023-02-15T18:46:12;2.10;99.90
44695;DHT22;32845;59.422;17.930;2023-02-15T18:50:43;2.10;99.90
44695;DHT22;32845;59.422;17.930;2023-02-15T18:55:20;2.10;99.90
44695;DHT22;32845;59.422;17.930;2023-02-15T18:59:51;2.10;99.90
44695;DHT22;32845;59.422;17.930;2023-02-15T19:04:21;2.10;99.90
44695;DHT22;32845;59.422;17.930;2023-02-15T19:08:52;2.00;99.90
44695;DHT22;32845;59.422;17.930;2023-02-15T19:13:23;2.00;99.90
44695;DHT22;32845;59.422;17.930;2023-02-15T19:17:54;2.00;99.90
44695;DHT22;32845;59.422;17.930;2023-02-15T19:22:29;2.00;99.90
44695;DHT22;32845;59.422;17.930;2023-02-15T19:27:00;2.00;99.90
44695;DHT22;32845;59.422;17.930;2023-02-15T19:31:32;2.00;99.90
44695;DHT22;32845;59.422;17.930;2023-02-15T19:36:03;2.00;99.90
44695;DHT22;32845;59.422;17.930;2023-02-15T19:40:35;2.00;99.90
44695;DHT22;32845;59.422;17.930;2023-02-15T19:45:26;1.90;99.90
44695;DHT22;32845;59.422;17.930;2023-02-15T19:49:57;1.90;99.90
44695;DHT22;32845;59.422;17.930;2023-02-15T19:54:34;1.90;99.90
44695;DHT22;32845;59.422;17.930;2023-02-15T19:59:05;1.90;99.90
44695;DHT22;32845;59.422;17.930;2023-02-15T20:03:35;1.90;99.90
44695;DHT22;32845;59.422;17.930;2023-02-15T20:08:06;1.90;99.90
44695;DHT22;32845;59.422;17.930;2023-02-15T20:12:41;1.90;99.90
44695;DHT22;32845;59.422;17.930;2023-02-15T20:17:11;1.90;99.90
44695;DHT22;32845;59.422;17.930;2023-02-15T20:21:44;1.90;99.90
44695;DHT22;32845;59.422;17.930;2023-02-15T20:26:16;1.90;99.90
44695;DHT22;32845;59.422;17.930;2023-02-15T20:30:49;1.90;99.90
44695;DHT22;32845;59.422;17.930;2023-02-15T20:35:24;1.90;99.90
44695;DHT22;32845;59.422;17.930;2023-02-15T20:39:55;1.90;99.90
44695;DHT22;32845;59.422;17.930;2023-02-15T20:44:29;1.90;99.90
44695;DHT22;32845;59.422;17.930;2023-02-15T20:49:00;1.90;99.90
44695;DHT22;32845;59.422;17.930;2023-02-15T20:53:31;1.80;99.90
44695;DHT22;32845;59.422;17.930;2023-02-15T20:58:04;1.90;99.90
44695;DHT22;32845;59.422;17.930;2023-02-15T21:02:40;1.80;99.90
44695;DHT22;32845;59.422;17.930;2023-02-15T21:07:16;1.80;99.90
44695;DHT22;32845;59.422;17.930;2023-02-15T21:11:49;1.80;99.90
44695;DHT22;32845;59.422;17.930;2023-02-15T21:16:20;1.80;99.90
44695;DHT22;32845;59.422;17.930;2023-02-15T21:20:54;1.80;99.90
44695;DHT22;32845;59.422;17.930;2023-02-15T21:25:32;1.80;99.90
44695;DHT22;32845;59.422;17.930;2023-02-15T21:30:14;1.70;99.90
44695;DHT22;32845;59.422;17.930;2023-02-15T21:34:45;1.70;99.90
44695;DHT22;32845;59.422;17.930;2023-02-15T21:39:23;1.70;99.90
44695;DHT22;32845;59.422;17.930;2023-02-15T21:43:55;1.70;99.90
44695;DHT22;32845;59.422;17.930;2023-02-15T21:48:44;1.70;99.90
44695;DHT22;32845;59.422;17.930;2023-02-15T21:53:29;1.70;99.90
44695;DHT22;32845;59.422;17.930;2023-02-15T21:58:01;1.70;99.90
44695;DHT22;32845;59.422;17.930;2023-02-15T22:02:31;1.70;99.90
44695;DHT22;32845;59.422;17.930;2023-02-15T22:07:02;1.70;99.90
44695;DHT22;32845;59.422;17.930;2023-02-15T22:11:33;1.70;99.90
44695;DHT22;32845;59.422;17.930;2023-02-15T22:16:04;1.70;99.90
44695;DHT22;32845;59.422;17.930;2023-02-15T22:20:35;1.70;99.90
44695;DHT22;32845;59.422;17.930;2023-02-15T22:25:05;1.70;99.90
44695;DHT22;32845;59.422;17.930;2023-02-15T22:29:36;1.60;99.90
44695;DHT22;32845;59.422;17.930;2023-02-15T22:34:29;1.60;99.90
44695;DHT22;32845;59.422;17.930;2023-02-15T22:39:00;1.60;99.90
44695;DHT22;32845;59.422;17.930;2023-02-15T22:48:04;1.60;99.90
44695;DHT22;32845;59.422;17.930;2023-02-15T22:52:35;1.60;99.90
44695;DHT22;32845;59.422;17.930;2023-02-15T22:57:13;1.60;99.90
44695;DHT22;32845;59.422;17.930;2023-02-15T23:01:45;1.60;99.90
44695;DHT22;32845;59.422;17.930;2023-02-15T23:06:17;1.60;99.90
44695;DHT22;32845;59.422;17.930;2023-02-15T23:10:52;1.60;99.90
44695;DHT22;32845;59.422;17.930;2023-02-15T23:15:24;1.60;99.90
44695;DHT22;32845;59.422;17.930;2023-02-15T23:19:55;1.60;99.90
44695;DHT22;32845;59.422;17.930;2023-02-15T23:24:27;1.60;99.90
44695;DHT22;32845;59.422;17.930;2023-02-15T23:29:00;1.60;99.90
44695;DHT22;32845;59.422;17.930;2023-02-15T23:33:32;1.60;99.90
44695;DHT22;32845;59.422;17.930;2023-02-15T23:38:22;1.60;99.90
44695;DHT22;32845;59.422;17.930;2023-02-15T23:42:53;1.60;99.90
44695;DHT22;32845;59.422;17.930;2023-02-15T23:52:15;1.70;99.90
44695;DHT22;32845;59.422;17.930;2023-02-15T23:56:48;1.70;99.90
